Time;durP1;ratioP1;P1;durP2;ratioP2;P2;SDS_P1;SDS_P2;PMS_P1;PMS_P2;Temp;Humidity;BMP_temperature;BMP_pressure;BME280_temperature;BME280_humidity;BME280_pressure;Samples;Min_cycle;Max_cycle;Signal;HPM_P1;HPM_P2
2024/04/08 00:02:00;;;;;;;9.77;1.90;;;;;;;;;;5078093;28;20190;-86
2024/04/08 00:04:26;;;;;;;10.00;1.73;;;;;;;;;;5084900;28;20642;-86
2024/04/08 00:07:21;;;;;;;7.18;1.48;;;;;;;;;;5085308;28;20278;-85
2024/04/08 00:10:11;;;;;;;9.03;1.50;;;;;;;;;;5072616;28;20237;-84
2024/04/08 00:12:48;;;;;;;8.40;1.40;;;;;;;;;;5070280;28;20205;-85
2024/04/08 00:15:18;;;;;;;7.97;1.27;;;;;;;;;;5090904;28;20194;-86
2024/04/08 00:17:45;;;;;;;7.97;2.07;;;;;;;;;;5090018;28;20193;-85
2024/04/08 00:20:12;;;;;;;8.73;1.77;;;;;;;;;;5084768;22;20266;-83
2024/04/08 00:22:44;;;;;;;8.40;1.67;;;;;;;;;;5066521;28;20653;-83
2024/04/08 00:25:13;;;;;;;10.80;1.93;;;;;;;;;;5068331;28;20530;-83
2024/04/08 00:27:39;;;;;;;10.23;1.03;;;;;;;;;;5051603;28;20236;-83
2024/04/08 00:30:07;;;;;;;8.90;1.70;;;;;;;;;;5051044;28;20171;-83
2024/04/08 00:32:34;;;;;;;4.70;1.53;;;;;;;;;;5050848;28;20524;-83
2024/04/08 00:35:01;;;;;;;8.53;2.03;;;;;;;;;;5069180;28;20168;-83
2024/04/08 00:37:27;;;;;;;4.85;1.55;;;;;;;;;;5055032;28;20501;-83
2024/04/08 00:39:55;;;;;;;6.05;1.52;;;;;;;;;;5054615;28;20220;-83
2024/04/08 00:42:22;;;;;;;5.80;1.47;;;;;;;;;;5072724;28;20191;-83
2024/04/08 00:44:49;;;;;;;12.13;2.03;;;;;;;;;;5054964;28;20171;-83
2024/04/08 00:47:17;;;;;;;8.73;1.60;;;;;;;;;;5054889;28;20182;-83
2024/04/08 00:49:43;;;;;;;6.43;1.67;;;;;;;;;;5072199;28;20202;-83
2024/04/08 00:52:11;;;;;;;7.00;2.00;;;;;;;;;;5054357;28;20708;-83
2024/04/08 00:54:39;;;;;;;10.17;1.80;;;;;;;;;;5072229;28;20182;-84
2024/04/08 00:57:10;;;;;;;6.33;1.83;;;;;;;;;;5072003;28;20244;-83
2024/04/08 00:59:38;;;;;;;7.65;2.08;;;;;;;;;;5048211;28;20201;-83
2024/04/08 01:02:16;;;;;;;8.33;2.00;;;;;;;;;;5054369;28;20195;-83
2024/04/08 01:04:42;;;;;;;6.90;1.80;;;;;;;;;;5054407;28;20179;-83
2024/04/08 01:07:08;;;;;;;9.33;1.97;;;;;;;;;;5054517;28;20270;-83
2024/04/08 01:09:35;;;;;;;6.90;1.40;;;;;;;;;;5053977;28;20191;-83
2024/04/08 01:12:02;;;;;;;9.70;1.60;;;;;;;;;;5054321;28;20233;-83
2024/04/08 01:14:30;;;;;;;9.30;2.27;;;;;;;;;;5054424;28;20178;-83
2024/04/08 01:16:59;;;;;;;7.67;1.73;;;;;;;;;;5067131;28;20214;-82
2024/04/08 01:19:31;;;;;;;8.53;2.10;;;;;;;;;;5058198;28;20198;-83
2024/04/08 01:22:23;;;;;;;11.20;2.08;;;;;;;;;;5057940;28;20205;-83
2024/04/08 01:25:28;;;;;;;7.10;2.07;;;;;;;;;;5071616;28;20178;-84
2024/04/08 01:27:59;;;;;;;4.83;1.40;;;;;;;;;;5072409;28;20183;-84
2024/04/08 01:30:30;;;;;;;8.30;1.53;;;;;;;;;;5053833;28;20317;-84
2024/04/08 01:32:57;;;;;;;6.53;1.90;;;;;;;;;;5053743;28;20602;-84
2024/04/08 01:35:24;;;;;;;8.87;1.93;;;;;;;;;;5053906;28;20262;-84
2024/04/08 01:37:54;;;;;;;5.90;1.80;;;;;;;;;;5053927;28;20180;-84
2024/04/08 01:40:21;;;;;;;4.87;1.70;;;;;;;;;;5054536;28;20242;-84
2024/04/08 01:42:49;;;;;;;5.43;1.47;;;;;;;;;;5054217;28;20186;-83
2024/04/08 01:45:15;;;;;;;9.45;1.88;;;;;;;;;;5054155;28;20179;-83
2024/04/08 01:47:43;;;;;;;8.63;1.77;;;;;;;;;;5070530;28;20585;-83
2024/04/08 01:50:11;;;;;;;4.77;1.37;;;;;;;;;;5071450;28;20234;-83
2024/04/08 01:53:02;;;;;;;6.40;1.50;;;;;;;;;;5054797;28;20171;-83
2024/04/08 01:55:31;;;;;;;9.00;1.97;;;;;;;;;;5070765;28;20186;-84
2024/04/08 01:57:57;;;;;;;3.53;1.57;;;;;;;;;;5053373;28;20191;-84
2024/04/08 02:00:25;;;;;;;13.50;1.80;;;;;;;;;;5053523;28;20198;-84
2024/04/08 02:02:54;;;;;;;4.43;1.30;;;;;;;;;;5052932;28;20190;-83
2024/04/08 02:05:21;;;;;;;7.10;1.60;;;;;;;;;;5070061;28;20209;-83
2024/04/08 02:07:55;;;;;;;8.17;1.63;;;;;;;;;;5051434;28;20191;-83
2024/04/08 02:10:25;;;;;;;9.83;1.57;;;;;;;;;;5052335;28;20213;-83
2024/04/08 02:12:59;;;;;;;8.03;1.80;;;;;;;;;;5071880;28;20178;-83
2024/04/08 02:15:25;;;;;;;6.40;1.83;;;;;;;;;;5070679;28;20183;-84
2024/04/08 02:17:53;;;;;;;5.67;1.30;;;;;;;;;;5050578;28;20210;-83
2024/04/08 02:20:20;;;;;;;6.07;1.20;;;;;;;;;;5053525;28;20203;-84
2024/04/08 02:22:47;;;;;;;7.10;1.30;;;;;;;;;;5053297;28;20195;-84
2024/04/08 02:25:14;;;;;;;4.30;1.37;;;;;;;;;;5052862;28;20181;-84
2024/04/08 02:27:43;;;;;;;3.53;1.30;;;;;;;;;;5053043;28;20170;-84
2024/04/08 02:30:13;;;;;;;5.47;1.63;;;;;;;;;;5070918;28;20604;-83
2024/04/08 02:33:21;;;;;;;4.57;1.37;;;;;;;;;;5068406;28;20286;-84
2024/04/08 02:35:48;;;;;;;6.10;1.40;;;;;;;;;;5068596;28;20179;-84
2024/04/08 02:38:14;;;;;;;5.90;1.17;;;;;;;;;;5052955;28;20391;-83
2024/04/08 02:40:46;;;;;;;8.33;1.80;;;;;;;;;;5071048;28;20632;-83
2024/04/08 02:43:13;;;;;;;4.37;1.10;;;;;;;;;;5052593;28;20190;-84
2024/04/08 02:45:44;;;;;;;4.50;1.47;;;;;;;;;;5067861;28;20254;-84
2024/04/08 02:48:20;;;;;;;6.13;1.50;;;;;;;;;;5052588;28;20228;-84
2024/04/08 02:50:51;;;;;;;8.93;1.77;;;;;;;;;;5066760;28;20246;-84
2024/04/08 02:53:38;;;;;;;2.87;1.37;;;;;;;;;;5055564;28;20755;-84
2024/04/08 02:56:10;;;;;;;7.10;1.00;;;;;;;;;;5069565;28;20645;-84
2024/04/08 02:58:37;;;;;;;6.17;1.40;;;;;;;;;;5052371;28;20194;-84
2024/04/08 03:01:09;;;;;;;7.40;1.60;;;;;;;;;;5070266;28;20678;-84
2024/04/08 03:03:35;;;;;;;4.77;1.20;;;;;;;;;;5052070;28;20178;-83
2024/04/08 03:06:15;;;;;;;4.60;1.53;;;;;;;;;;5052209;28;20247;-84
2024/04/08 03:08:42;;;;;;;7.73;1.83;;;;;;;;;;5051907;28;20987;-84
2024/04/08 03:11:13;;;;;;;8.03;1.47;;;;;;;;;;5069803;28;20214;-84
2024/04/08 03:14:03;;;;;;;8.20;2.33;;;;;;;;;;5068139;28;20211;-84
2024/04/08 03:16:34;;;;;;;7.93;2.50;;;;;;;;;;5064476;28;20191;-83
2024/04/08 03:19:18;;;;;;;8.23;2.07;;;;;;;;;;5070458;28;20162;-84
2024/04/08 03:21:49;;;;;;;8.43;2.10;;;;;;;;;;5070144;28;20219;-83
2024/04/08 03:24:21;;;;;;;5.10;1.80;;;;;;;;;;5068417;28;20225;-83
2024/04/08 03:26:51;;;;;;;6.90;2.40;;;;;;;;;;5070126;28;20183;-84
2024/04/08 03:29:18;;;;;;;4.67;2.00;;;;;;;;;;5052460;28;20207;-83
2024/04/08 03:31:47;;;;;;;7.87;1.87;;;;;;;;;;5051595;28;20289;-83
2024/04/08 03:34:15;;;;;;;6.07;1.80;;;;;;;;;;5070043;28;20208;-83
2024/04/08 03:36:41;;;;;;;10.20;2.10;;;;;;;;;;5051667;28;20179;-83
2024/04/08 03:39:16;;;;;;;13.23;1.83;;;;;;;;;;5070394;28;20451;-83
2024/04/08 03:41:42;;;;;;;4.63;1.70;;;;;;;;;;5066764;28;20215;-84
2024/04/08 03:44:08;;;;;;;4.83;2.00;;;;;;;;;;5070154;28;20603;-84
2024/04/08 03:46:34;;;;;;;5.60;2.30;;;;;;;;;;5052161;28;20259;-84
2024/04/08 03:49:01;;;;;;;11.97;2.00;;;;;;;;;;5051634;28;20174;-84
2024/04/08 03:51:27;;;;;;;11.90;1.93;;;;;;;;;;5052077;28;20198;-84
2024/04/08 03:53:56;;;;;;;7.83;2.00;;;;;;;;;;5052327;28;20202;-84
2024/04/08 03:56:24;;;;;;;4.30;1.70;;;;;;;;;;5052078;28;20177;-83
2024/04/08 03:58:52;;;;;;;5.30;2.03;;;;;;;;;;5052173;28;20209;-84
2024/04/08 04:01:21;;;;;;;7.27;2.00;;;;;;;;;;5069938;28;20198;-84
2024/04/08 04:03:52;;;;;;;7.10;1.63;;;;;;;;;;5051677;28;20190;-84
2024/04/08 04:06:22;;;;;;;10.40;2.00;;;;;;;;;;5069900;28;20270;-84
2024/04/08 04:08:56;;;;;;;3.40;1.47;;;;;;;;;;5051710;28;20297;-84
2024/04/08 04:11:25;;;;;;;7.77;2.17;;;;;;;;;;5054123;28;20282;-84
2024/04/08 04:14:06;;;;;;;8.77;2.03;;;;;;;;;;5055927;28;20179;-84
2024/04/08 04:16:54;;;;;;;10.00;2.00;;;;;;;;;;5056007;28;20618;-84
2024/04/08 04:19:28;;;;;;;6.70;2.07;;;;;;;;;;5056135;28;20510;-84
2024/04/08 04:22:02;;;;;;;8.47;1.83;;;;;;;;;;5073456;28;20210;-84
2024/04/08 04:24:30;;;;;;;5.00;1.47;;;;;;;;;;5056066;28;20720;-83
2024/04/08 04:27:04;;;;;;;8.67;1.77;;;;;;;;;;5056013;28;20175;-83
2024/04/08 04:29:30;;;;;;;5.27;1.67;;;;;;;;;;5055809;28;20594;-83
2024/04/08 04:31:58;;;;;;;12.37;2.53;;;;;;;;;;5056152;28;20266;-83
2024/04/08 04:34:27;;;;;;;7.90;2.20;;;;;;;;;;5056167;28;20214;-84
2024/04/08 04:36:57;;;;;;;10.00;2.70;;;;;;;;;;5056048;28;20349;-84
2024/04/08 04:39:26;;;;;;;5.13;1.70;;;;;;;;;;5055872;28;20167;-85
2024/04/08 04:41:55;;;;;;;10.13;2.20;;;;;;;;;;5056028;28;20211;-83
2024/04/08 04:44:24;;;;;;;5.83;1.57;;;;;;;;;;5055827;28;20586;-84
2024/04/08 04:46:59;;;;;;;9.10;2.00;;;;;;;;;;5056776;28;20358;-84
2024/04/08 04:49:30;;;;;;;7.17;1.70;;;;;;;;;;5055621;28;20183;-84
2024/04/08 04:51:59;;;;;;;8.47;1.60;;;;;;;;;;5055275;28;20195;-84
2024/04/08 04:54:32;;;;;;;6.60;1.70;;;;;;;;;;5074080;28;20653;-83
2024/04/08 04:57:01;;;;;;;8.03;1.80;;;;;;;;;;5055292;28;20175;-83
2024/04/08 04:59:42;;;;;;;10.57;1.70;;;;;;;;;;5055304;28;20641;-84
2024/04/08 05:02:11;;;;;;;7.67;1.70;;;;;;;;;;5055109;28;20206;-84
2024/04/08 05:04:39;;;;;;;9.93;2.07;;;;;;;;;;5055152;28;20182;-83
2024/04/08 05:07:07;;;;;;;6.43;1.53;;;;;;;;;;5054668;28;20179;-84
2024/04/08 05:09:33;;;;;;;8.63;1.63;;;;;;;;;;5054717;28;20172;-84
2024/04/08 05:12:07;;;;;;;2.70;1.27;;;;;;;;;;5055049;28;20242;-83
2024/04/08 05:14:33;;;;;;;5.90;1.63;;;;;;;;;;5055449;28;20209;-84
2024/04/08 05:17:02;;;;;;;11.00;2.13;;;;;;;;;;5054313;28;20623;-84
2024/04/08 05:19:37;;;;;;;7.93;1.73;;;;;;;;;;5054440;28;20362;-84
2024/04/08 05:22:16;;;;;;;8.43;2.00;;;;;;;;;;5054000;28;20275;-83
2024/04/08 05:24:47;;;;;;;8.93;1.43;;;;;;;;;;5072262;28;20183;-83
2024/04/08 05:27:35;;;;;;;13.20;2.00;;;;;;;;;;5054771;28;20191;-84
2024/04/08 05:30:04;;;;;;;11.53;1.60;;;;;;;;;;5054343;28;20673;-84
2024/04/08 05:32:39;;;;;;;7.63;1.73;;;;;;;;;;5054513;28;20690;-84
2024/04/08 05:38:12;;;;;;;6.10;2.10;;;;;;;;;;5072779;28;20190;-83
2024/04/08 05:40:41;;;;;;;14.03;2.23;;;;;;;;;;5054062;28;20229;-84
2024/04/08 05:43:13;;;;;;;7.90;1.53;;;;;;;;;;5054375;28;20654;-84
2024/04/08 05:46:10;;;;;;;5.27;1.77;;;;;;;;;;5053817;28;20174;-83
2024/04/08 05:48:45;;;;;;;8.70;1.37;;;;;;;;;;5071110;28;20167;-84
2024/04/08 05:51:13;;;;;;;7.23;1.47;;;;;;;;;;5054222;28;20587;-84
2024/04/08 05:53:47;;;;;;;5.03;1.70;;;;;;;;;;5054310;28;20179;-84
2024/04/08 05:56:25;;;;;;;4.03;1.47;;;;;;;;;;5054465;28;20174;-84
2024/04/08 05:59:15;;;;;;;9.60;1.80;;;;;;;;;;5054397;28;20236;-84
2024/04/08 06:02:24;;;;;;;;;;;;;;;;;;;;;
2024/04/08 06:04:44;;;;;;;8.20;1.87;;;;;;;;;;5066109;28;20548;-84
2024/04/08 06:07:14;;;;;;;8.73;2.23;;;;;;;;;;5053683;28;20638;-84
2024/04/08 06:12:29;;;;;;;9.63;1.67;;;;;;;;;;5073657;28;20641;-84
2024/04/08 06:15:08;;;;;;;;;;;;;;;;;;;;;
2024/04/08 06:18:07;;;;;;;;;;;;;;;;;;;;;
2024/04/08 06:23:10;;;;;;;7.33;1.50;;;;;;;;;;5082112;28;20596;-87
2024/04/08 06:25:36;;;;;;;6.53;1.17;;;;;;;;;;5066896;28;20194;-84
2024/04/08 06:28:05;;;;;;;5.57;1.57;;;;;;;;;;5071851;28;20804;-86
2024/04/08 06:30:34;;;;;;;10.57;1.87;;;;;;;;;;5070795;28;20234;-86
2024/04/08 06:33:00;;;;;;;6.53;1.43;;;;;;;;;;5088325;28;20213;-86
2024/04/08 06:35:29;;;;;;;8.27;1.70;;;;;;;;;;5088383;28;20195;-87
2024/04/08 06:37:59;;;;;;;10.70;3.67;;;;;;;;;;5070889;28;20178;-86
2024/04/08 06:40:28;;;;;;;8.07;1.77;;;;;;;;;;5082151;28;20203;-85
2024/04/08 06:42:56;;;;;;;8.73;1.53;;;;;;;;;;5079772;28;20178;-85
2024/04/08 06:45:30;;;;;;;6.80;1.73;;;;;;;;;;5060118;28;20210;-86
2024/04/08 06:48:07;;;;;;;9.13;1.40;;;;;;;;;;5064640;28;20649;-85
2024/04/08 06:50:38;;;;;;;9.57;1.77;;;;;;;;;;5081484;28;20198;-86
2024/04/08 06:53:22;;;;;;;10.03;1.43;;;;;;;;;;5083085;28;20212;-86
2024/04/08 06:55:59;;;;;;;6.57;1.40;;;;;;;;;;5067220;28;20533;-86
2024/04/08 06:58:43;;;;;;;11.37;1.90;;;;;;;;;;5084445;28;20198;-86
2024/04/08 07:01:09;;;;;;;6.77;1.57;;;;;;;;;;5070071;28;20214;-86
2024/04/08 07:03:37;;;;;;;10.17;1.90;;;;;;;;;;5087429;28;20282;-86
2024/04/08 07:06:03;;;;;;;4.73;1.83;;;;;;;;;;5072772;28;20179;-86
2024/04/08 07:08:32;;;;;;;6.27;1.53;;;;;;;;;;5067878;28;20187;-85
2024/04/08 07:11:03;;;;;;;5.53;1.70;;;;;;;;;;5084994;28;20182;-85
2024/04/08 07:13:29;;;;;;;9.43;1.67;;;;;;;;;;5081145;28;20240;-87
2024/04/08 07:16:01;;;;;;;8.77;1.70;;;;;;;;;;5082405;28;20194;-84
2024/04/08 07:18:27;;;;;;;6.47;1.70;;;;;;;;;;5063969;28;20210;-86
2024/04/08 07:20:56;;;;;;;6.70;1.53;;;;;;;;;;5088393;28;20704;-87
2024/04/08 07:23:22;;;;;;;4.57;1.70;;;;;;;;;;5069032;28;20632;-87
2024/04/08 07:25:50;;;;;;;7.77;1.97;;;;;;;;;;5071714;28;20225;-87
2024/04/08 07:28:18;;;;;;;12.20;2.90;;;;;;;;;;5067788;28;20265;-86
2024/04/08 07:30:44;;;;;;;7.73;2.83;;;;;;;;;;5080514;28;20285;-87
2024/04/08 07:33:10;;;;;;;12.70;2.03;;;;;;;;;;5065032;28;20265;-87
2024/04/08 07:35:36;;;;;;;9.00;1.80;;;;;;;;;;5081473;28;20182;-87
2024/04/08 07:38:02;;;;;;;8.03;1.83;;;;;;;;;;5079905;28;20649;-88
2024/04/08 07:40:31;;;;;;;9.47;1.70;;;;;;;;;;5064736;28;20344;-86
2024/04/08 07:42:57;;;;;;;7.60;1.60;;;;;;;;;;5080888;28;20178;-87
2024/04/08 07:45:32;;;;;;;9.77;1.57;;;;;;;;;;5082932;28;20291;-87
2024/04/08 07:48:00;;;;;;;4.50;1.40;;;;;;;;;;5063517;28;20289;-87
2024/04/08 07:50:26;;;;;;;9.43;1.70;;;;;;;;;;5071111;28;20638;-87
2024/04/08 07:52:52;;;;;;;6.43;1.33;;;;;;;;;;5068474;28;20182;-87
2024/04/08 07:55:18;;;;;;;10.73;1.80;;;;;;;;;;5086845;28;20204;-87
2024/04/08 07:57:48;;;;;;;7.67;1.70;;;;;;;;;;5090086;28;20178;-87
2024/04/08 08:00:14;;;;;;;4.07;1.10;;;;;;;;;;5084158;28;20613;-86
2024/04/08 08:02:41;;;;;;;3.23;1.60;;;;;;;;;;5090673;28;20281;-87
2024/04/08 08:05:14;;;;;;;6.43;1.83;;;;;;;;;;5072770;28;20522;-86
2024/04/08 08:07:43;;;;;;;6.17;1.77;;;;;;;;;;5087540;28;20183;-87
2024/04/08 08:10:17;;;;;;;5.40;1.70;;;;;;;;;;5086856;28;20309;-88
2024/04/08 08:12:43;;;;;;;7.80;1.60;;;;;;;;;;5071602;28;20509;-88
2024/04/08 08:15:09;;;;;;;7.20;1.97;;;;;;;;;;5068628;28;20199;-88
2024/04/08 08:17:41;;;;;;;6.50;1.50;;;;;;;;;;5088915;28;20630;-88
2024/04/08 08:20:16;;;;;;;6.05;1.63;;;;;;;;;;5088972;28;20289;-84
2024/04/08 08:22:45;;;;;;;7.90;1.77;;;;;;;;;;5066598;28;20607;-86
2024/04/08 08:25:14;;;;;;;8.43;2.83;;;;;;;;;;5069738;28;20277;-85
2024/04/08 08:27:40;;;;;;;6.45;1.88;;;;;;;;;;5088582;28;20194;-88
2024/04/08 08:30:06;;;;;;;3.65;1.40;;;;;;;;;;5089527;28;20202;-86
2024/04/08 08:32:39;;;;;;;5.03;2.08;;;;;;;;;;5086732;28;20217;-87
2024/04/08 08:35:08;;;;;;;5.15;1.33;;;;;;;;;;5070773;28;20207;-87
2024/04/08 08:37:37;;;;;;;21.42;8.20;;;;;;;;;;5071875;28;20798;-87
2024/04/08 08:40:03;;;;;;;10.75;1.77;;;;;;;;;;5086357;28;20554;-87
2024/04/08 08:42:32;;;;;;;10.55;2.22;;;;;;;;;;5069691;28;21194;-87
2024/04/08 08:44:59;;;;;;;6.75;1.88;;;;;;;;;;5084837;28;20207;-88
2024/04/08 08:47:28;;;;;;;9.82;2.85;;;;;;;;;;5085072;28;20303;-88
2024/04/08 08:49:55;;;;;;;8.70;1.92;;;;;;;;;;5059968;28;20289;-88
2024/04/08 08:52:24;;;;;;;11.48;1.88;;;;;;;;;;5089006;28;20364;-89
2024/04/08 08:54:54;;;;;;;7.68;1.80;;;;;;;;;;5070600;28;20186;-88
2024/04/08 08:57:26;;;;;;;6.72;1.65;;;;;;;;;;5082584;28;20179;-87
2024/04/08 08:59:52;;;;;;;11.90;1.80;;;;;;;;;;5087096;23;20481;-89
2024/04/08 09:02:18;;;;;;;7.35;1.60;;;;;;;;;;5064390;28;20214;-88
2024/04/08 09:04:44;;;;;;;6.95;1.55;;;;;;;;;;5087235;28;20179;-88
2024/04/08 09:07:10;;;;;;;7.30;1.70;;;;;;;;;;5064768;28;20180;-89
2024/04/08 09:09:36;;;;;;;9.65;2.28;;;;;;;;;;5085546;28;20665;-89
2024/04/08 09:12:02;;;;;;;3.72;1.80;;;;;;;;;;5070144;28;20206;-87
2024/04/08 09:14:30;;;;;;;9.20;2.08;;;;;;;;;;5082370;28;20175;-87
2024/04/08 09:17:08;;;;;;;12.30;2.13;;;;;;;;;;5077713;28;20195;-88
2024/04/08 09:19:35;;;;;;;7.93;1.75;;;;;;;;;;5064551;28;20283;-87
2024/04/08 09:22:01;;;;;;;7.97;2.30;;;;;;;;;;5065642;28;20203;-88
2024/04/08 09:26:07;;;;;;;7.80;1.52;;;;;;;;;;5441652;26;20913;-85
2024/04/08 09:28:33;;;;;;;7.75;1.88;;;;;;;;;;5415462;26;20288;-85
2024/04/08 09:30:59;;;;;;;8.40;2.13;;;;;;;;;;5415363;26;20272;-85
2024/04/08 09:33:25;;;;;;;5.43;2.00;;;;;;;;;;5411923;26;20301;-85
2024/04/08 09:35:51;;;;;;;3.60;1.83;;;;;;;;;;5413558;26;20723;-86
2024/04/08 09:38:17;;;;;;;13.38;2.10;;;;;;;;;;5404167;26;20287;-85
2024/04/08 09:40:44;;;;;;;6.15;1.80;;;;;;;;;;5407952;26;20578;-85
2024/04/08 09:43:11;;;;;;;12.48;2.22;;;;;;;;;;5410212;26;20792;-85
2024/04/08 09:45:38;;;;;;;8.70;1.95;;;;;;;;;;5415554;26;20332;-83
2024/04/08 09:48:05;;;;;;;6.75;1.75;;;;;;;;;;5404853;26;20312;-85
2024/04/08 09:50:32;;;;;;;12.70;2.08;;;;;;;;;;5403959;26;20240;-85
2024/04/08 09:52:58;;;;;;;8.93;1.80;;;;;;;;;;5414763;26;20720;-84
2024/04/08 09:55:28;;;;;;;7.50;1.80;;;;;;;;;;5411994;26;21074;-83
2024/04/08 09:57:54;;;;;;;6.10;1.77;;;;;;;;;;5417983;26;20296;-86
2024/04/08 10:00:20;;;;;;;8.80;1.83;;;;;;;;;;5414752;26;20244;-86
2024/04/08 10:02:47;;;;;;;5.70;2.00;;;;;;;;;;5410511;26;20232;-86
2024/04/08 10:05:13;;;;;;;5.28;1.80;;;;;;;;;;5416542;26;20841;-85
2024/04/08 10:07:41;;;;;;;9.48;2.13;;;;;;;;;;5402763;26;21536;-84
2024/04/08 10:10:10;;;;;;;10.25;2.88;;;;;;;;;;5415163;26;20236;-84
2024/04/08 10:12:36;;;;;;;7.38;2.00;;;;;;;;;;5417673;26;21785;-85
2024/04/08 10:15:09;;;;;;;7.57;2.10;;;;;;;;;;5400355;26;20763;-86
2024/04/08 10:17:36;;;;;;;8.38;2.42;;;;;;;;;;5400221;26;20331;-86
2024/04/08 10:20:05;;;;;;;6.90;2.10;;;;;;;;;;5412475;26;20240;-86
2024/04/08 10:22:31;;;;;;;12.18;3.50;;;;;;;;;;5400935;26;20267;-86
2024/04/08 10:24:57;;;;;;;7.10;2.10;;;;;;;;;;5408815;26;20338;-86
2024/04/08 10:27:26;;;;;;;10.18;2.70;;;;;;;;;;5402087;26;20859;-85
2024/04/08 10:29:59;;;;;;;8.20;2.55;;;;;;;;;;5419054;26;20252;-86
2024/04/08 10:32:25;;;;;;;8.68;2.35;;;;;;;;;;5405430;26;20241;-86
2024/04/08 10:34:54;;;;;;;9.35;2.30;;;;;;;;;;5412313;26;20734;-86
2024/04/08 10:37:20;;;;;;;5.15;1.42;;;;;;;;;;5390406;26;20246;-84
2024/04/08 10:39:46;;;;;;;9.35;2.28;;;;;;;;;;5392525;26;20338;-84
2024/04/08 10:42:18;;;;;;;12.50;2.47;;;;;;;;;;5404944;26;20267;-87
2024/04/08 10:44:44;;;;;;;9.15;1.92;;;;;;;;;;5399662;26;20271;-84
2024/04/08 10:47:10;;;;;;;8.20;2.53;;;;;;;;;;5400884;26;22809;-84
2024/04/08 10:49:36;;;;;;;14.95;2.33;;;;;;;;;;5396838;26;20226;-86
2024/04/08 10:52:02;;;;;;;8.13;2.33;;;;;;;;;;5388950;26;20240;-84
2024/04/08 10:54:28;;;;;;;12.57;2.38;;;;;;;;;;5390622;26;20380;-82
2024/04/08 10:56:55;;;;;;;7.18;2.17;;;;;;;;;;5383442;26;20260;-83
2024/04/08 10:59:21;;;;;;;8.57;2.20;;;;;;;;;;5388780;26;20257;-83
2024/04/08 11:01:47;;;;;;;10.98;2.47;;;;;;;;;;5386064;26;20522;-85
2024/04/08 11:04:13;;;;;;;12.40;2.42;;;;;;;;;;5405832;26;20253;-85
2024/04/08 11:06:39;;;;;;;13.48;2.55;;;;;;;;;;5386177;26;20345;-85
2024/04/08 11:09:06;;;;;;;14.32;2.85;;;;;;;;;;5395204;26;20248;-83
2024/04/08 11:11:33;;;;;;;9.75;2.10;;;;;;;;;;5403516;26;20299;-84
2024/04/08 11:13:59;;;;;;;12.63;2.92;;;;;;;;;;5397643;26;20242;-84
2024/04/08 11:16:27;;;;;;;11.98;2.20;;;;;;;;;;5397809;26;20229;-83
2024/04/08 11:18:53;;;;;;;8.93;1.75;;;;;;;;;;5400981;26;20246;-84
2024/04/08 11:21:19;;;;;;;15.07;2.35;;;;;;;;;;5403743;26;22759;-84
2024/04/08 11:23:44;;;;;;;10.05;2.33;;;;;;;;;;5391512;26;20230;-84
2024/04/08 11:26:11;;;;;;;8.73;1.83;;;;;;;;;;5405068;26;20596;-84
2024/04/08 11:28:37;;;;;;;10.32;2.63;;;;;;;;;;5396847;26;21000;-84
2024/04/08 11:31:04;;;;;;;12.38;2.33;;;;;;;;;;5393773;26;20249;-85
2024/04/08 11:33:30;;;;;;;6.65;1.90;;;;;;;;;;5396748;26;20233;-84
2024/04/08 11:35:56;;;;;;;9.77;1.85;;;;;;;;;;5399686;26;20279;-84
2024/04/08 11:38:22;;;;;;;9.55;2.17;;;;;;;;;;5395630;26;20242;-84
2024/04/08 11:40:49;;;;;;;8.85;2.05;;;;;;;;;;5400935;26;20259;-84
2024/04/08 11:43:15;;;;;;;6.45;2.00;;;;;;;;;;5388247;26;20370;-83
2024/04/08 11:45:41;;;;;;;8.40;2.03;;;;;;;;;;5403307;26;20271;-85
2024/04/08 11:48:08;;;;;;;11.73;2.60;;;;;;;;;;5394662;26;20241;-83
2024/04/08 11:50:34;;;;;;;11.70;2.05;;;;;;;;;;5393654;26;20241;-84
2024/04/08 11:53:00;;;;;;;7.30;1.83;;;;;;;;;;5396210;26;20279;-84
2024/04/08 11:55:26;;;;;;;10.50;2.30;;;;;;;;;;5389187;26;20578;-84
2024/04/08 11:57:52;;;;;;;6.60;1.98;;;;;;;;;;5374267;26;20265;-83
2024/04/08 12:00:20;;;;;;;7.97;1.80;;;;;;;;;;5385036;26;20260;-83
2024/04/08 12:02:49;;;;;;;8.80;2.17;;;;;;;;;;5383243;26;20309;-84
2024/04/08 12:05:19;;;;;;;8.98;2.10;;;;;;;;;;5384825;26;20580;-86
2024/04/08 12:07:45;;;;;;;7.00;1.80;;;;;;;;;;5398007;26;20252;-85
2024/04/08 12:10:12;;;;;;;7.78;1.80;;;;;;;;;;5388021;26;20285;-85
2024/04/08 12:12:39;;;;;;;10.15;1.70;;;;;;;;;;5381958;26;20271;-83
2024/04/08 12:15:06;;;;;;;7.25;1.80;;;;;;;;;;5376962;26;20276;-82
2024/04/08 12:17:32;;;;;;;9.07;1.90;;;;;;;;;;5389967;26;22632;-85
2024/04/08 12:19:58;;;;;;;7.15;1.80;;;;;;;;;;5382249;26;20234;-85
2024/04/08 12:22:24;;;;;;;9.20;1.50;;;;;;;;;;5387159;26;20241;-85
2024/04/08 12:24:50;;;;;;;6.53;1.77;;;;;;;;;;5391396;26;20361;-85
2024/04/08 12:27:16;;;;;;;7.85;1.92;;;;;;;;;;5397420;26;20652;-85
2024/04/08 12:29:42;;;;;;;8.95;2.03;;;;;;;;;;5394535;26;20282;-85
2024/04/08 12:32:09;;;;;;;10.40;1.55;;;;;;;;;;5386294;26;20253;-85
2024/04/08 12:34:35;;;;;;;7.10;1.60;;;;;;;;;;5388499;26;20339;-85
2024/04/08 12:37:01;;;;;;;11.27;1.60;;;;;;;;;;5386886;26;20943;-85
2024/04/08 12:39:27;;;;;;;8.85;1.80;;;;;;;;;;5402078;26;20298;-85
2024/04/08 12:41:53;;;;;;;4.80;1.33;;;;;;;;;;5394765;26;20291;-85
2024/04/08 12:44:19;;;;;;;5.28;1.48;;;;;;;;;;5385711;26;20242;-84
2024/04/08 12:46:45;;;;;;;4.97;1.45;;;;;;;;;;5388096;26;20272;-83
2024/04/08 12:49:14;;;;;;;8.60;1.67;;;;;;;;;;5394520;26;20273;-84
2024/04/08 12:51:41;;;;;;;4.90;1.58;;;;;;;;;;5400717;26;20236;-83
2024/04/08 12:54:07;;;;;;;13.45;4.32;;;;;;;;;;5377472;26;20860;-85
2024/04/08 12:56:33;;;;;;;8.32;1.92;;;;;;;;;;5386895;26;20257;-84
2024/04/08 12:58:59;;;;;;;5.93;1.30;;;;;;;;;;5383551;26;20784;-83
2024/04/08 13:01:25;;;;;;;4.05;1.33;;;;;;;;;;5401667;26;20240;-84
2024/04/08 13:03:55;;;;;;;12.00;1.40;;;;;;;;;;5397156;26;20240;-85
2024/04/08 13:06:21;;;;;;;8.20;1.38;;;;;;;;;;5389924;26;20244;-85
2024/04/08 13:08:47;;;;;;;9.40;1.60;;;;;;;;;;5393157;26;20264;-85
2024/04/08 13:11:13;;;;;;;7.07;1.70;;;;;;;;;;5392942;26;20245;-85
2024/04/08 13:13:39;;;;;;;15.25;4.45;;;;;;;;;;5390657;26;20562;-85
2024/04/08 13:16:07;;;;;;;9.88;2.85;;;;;;;;;;5392440;26;20283;-86
2024/04/08 13:18:33;;;;;;;9.23;2.25;;;;;;;;;;5396592;26;20236;-84
2024/04/08 13:20:59;;;;;;;7.63;1.85;;;;;;;;;;5387095;26;20250;-83
2024/04/08 13:23:25;;;;;;;6.80;1.75;;;;;;;;;;5383020;26;21020;-85
2024/04/08 13:25:51;;;;;;;7.65;1.58;;;;;;;;;;5393181;26;20643;-85
2024/04/08 13:28:17;;;;;;;8.55;1.85;;;;;;;;;;5391996;26;20234;-85
2024/04/08 13:30:43;;;;;;;10.68;2.03;;;;;;;;;;5398161;26;20592;-85
2024/04/08 13:33:09;;;;;;;9.48;1.70;;;;;;;;;;5396597;26;20241;-84
2024/04/08 13:35:35;;;;;;;6.72;1.80;;;;;;;;;;5391084;26;20575;-85
2024/04/08 13:38:01;;;;;;;10.52;2.33;;;;;;;;;;5395065;26;20238;-84
2024/04/08 13:40:27;;;;;;;10.68;2.00;;;;;;;;;;5413215;26;20256;-85
2024/04/08 13:42:53;;;;;;;12.50;2.00;;;;;;;;;;5403164;26;20233;-84
2024/04/08 13:45:19;;;;;;;9.80;2.33;;;;;;;;;;5393380;26;20283;-85
2024/04/08 13:47:46;;;;;;;11.88;2.25;;;;;;;;;;5396619;26;20316;-84
2024/04/08 13:50:12;;;;;;;11.88;2.53;;;;;;;;;;5395890;26;20252;-85
2024/04/08 13:52:38;;;;;;;11.32;2.15;;;;;;;;;;5395034;26;20229;-85
2024/04/08 13:55:04;;;;;;;10.23;1.88;;;;;;;;;;5393619;26;20238;-85
2024/04/08 13:57:30;;;;;;;8.85;1.65;;;;;;;;;;5404492;26;20635;-85
2024/04/08 13:59:59;;;;;;;10.18;1.85;;;;;;;;;;5399148;26;20293;-85
2024/04/08 14:02:25;;;;;;;14.98;2.92;;;;;;;;;;5399800;26;20273;-85
2024/04/08 14:04:51;;;;;;;8.70;2.63;;;;;;;;;;5395112;26;20240;-86
2024/04/08 14:07:17;;;;;;;7.97;2.10;;;;;;;;;;5397963;26;20734;-86
2024/04/08 14:09:43;;;;;;;10.13;2.30;;;;;;;;;;5394022;26;20284;-85
2024/04/08 14:12:09;;;;;;;16.17;2.63;;;;;;;;;;5405427;26;20236;-86
2024/04/08 14:14:35;;;;;;;15.75;3.17;;;;;;;;;;5393720;26;20264;-86
2024/04/08 14:17:01;;;;;;;10.65;2.38;;;;;;;;;;5397168;26;20276;-85
2024/04/08 14:19:27;;;;;;;7.88;2.08;;;;;;;;;;5390518;26;20238;-85
2024/04/08 14:21:53;;;;;;;7.90;2.15;;;;;;;;;;5392193;26;20244;-85
2024/04/08 14:24:19;;;;;;;12.15;2.05;;;;;;;;;;5395002;26;20256;-86
2024/04/08 14:26:45;;;;;;;15.23;3.25;;;;;;;;;;5402368;26;20757;-85
2024/04/08 14:29:11;;;;;;;13.93;3.15;;;;;;;;;;5398682;26;20238;-85
2024/04/08 14:31:37;;;;;;;14.88;3.22;;;;;;;;;;5396110;26;20278;-86
2024/04/08 14:34:03;;;;;;;13.82;3.28;;;;;;;;;;5395864;26;20334;-90
2024/04/08 14:36:29;;;;;;;11.48;2.85;;;;;;;;;;5394640;26;20347;-87
2024/04/08 14:38:55;;;;;;;13.05;3.00;;;;;;;;;;5395149;26;21019;-85
2024/04/08 14:41:21;;;;;;;12.95;3.13;;;;;;;;;;5401844;26;20282;-85
2024/04/08 14:43:47;;;;;;;10.82;3.03;;;;;;;;;;5399987;26;20245;-85
2024/04/08 14:46:14;;;;;;;16.45;3.05;;;;;;;;;;5390419;26;20810;-85
2024/04/08 14:48:40;;;;;;;18.70;3.25;;;;;;;;;;5400169;26;20623;-85
2024/04/08 14:51:06;;;;;;;17.15;2.92;;;;;;;;;;5394089;26;20252;-88
2024/04/08 14:53:33;;;;;;;8.23;2.75;;;;;;;;;;5407524;26;20241;-86
2024/04/08 14:55:59;;;;;;;12.82;2.42;;;;;;;;;;5393033;26;20343;-87
2024/04/08 14:58:25;;;;;;;15.70;2.92;;;;;;;;;;5397904;26;20643;-86
2024/04/08 15:00:55;;;;;;;14.07;2.65;;;;;;;;;;5378628;21;20357;-82
2024/04/08 15:03:21;;;;;;;14.20;4.18;;;;;;;;;;5374538;26;20270;-81
2024/04/08 15:05:47;;;;;;;14.48;2.83;;;;;;;;;;5374593;26;20231;-81